Time;durP1;ratioP1;P1;durP2;ratioP2;P2;SDS_P1;SDS_P2;PMS_P1;PMS_P2;Temp;Humidity;BMP_temperature;BMP_pressure;BME280_temperature;BME280_humidity;BME280_pressure;Samples;Min_cycle;Max_cycle;Signal;HPM_P1;HPM_P2
2022/08/12 00:42:50;;;;;;;10.80;7.78;;;;;;;16.52;82.05;97745.25;10250862;28;20492;-57
2022/08/12 00:47:52;;;;;;;13.68;8.27;;;;;;;16.44;82.49;97733.22;10251805;28;20062;-57
2022/08/12 00:52:51;;;;;;;14.55;8.30;;;;;;;16.42;82.71;97735.03;10250703;28;20725;-57
2022/08/12 00:57:50;;;;;;;18.70;8.60;;;;;;;16.43;81.99;97732.38;10252096;28;20061;-57
2022/08/12 01:02:52;;;;;;;10.43;7.40;;;;;;;16.44;82.56;97731.50;10250081;28;20484;-57
2022/08/12 01:13:12;;;;;;;9.77;6.82;;;;;;;16.23;85.14;97726.75;10250059;28;20069;-57
2022/08/12 01:18:16;;;;;;;10.27;7.43;;;;;;;16.27;85.47;97733.66;10250502;28;20471;-57
2022/08/12 01:23:47;;;;;;;10.00;7.47;;;;;;;16.32;85.36;97731.78;10249749;28;20097;-57
2022/08/12 01:28:49;;;;;;;10.00;7.03;;;;;;;16.30;85.24;97730.94;10251374;28;20058;-57
2022/08/12 01:34:27;;;;;;;10.90;7.47;;;;;;;16.27;85.26;97728.41;10248448;28;20085;-57
2022/08/12 01:39:41;;;;;;;10.10;7.43;;;;;;;16.08;85.70;97734.09;10247977;28;20077;-57
2022/08/12 01:44:40;;;;;;;10.82;8.60;;;;;;;15.90;86.38;97729.25;10210233;28;20475;-57
2022/08/12 01:49:45;;;;;;;;;;;;;;;15.78;86.54;97729.53;10211362;28;20701;-57
2022/08/12 01:54:46;;;;;;;11.63;9.05;;;;;;;15.68;87.15;97724.50;10221814;28;19956;-57
2022/08/12 02:00:05;;;;;;;11.93;8.55;;;;;;;15.64;87.25;97722.81;10258382;28;20474;-57
2022/08/12 02:16:21;;;;;;;9.85;6.72;;;;;;;16.00;87.22;97720.31;10218078;28;20707;-56
2022/08/12 02:21:37;;;;;;;11.95;7.00;;;;;;;16.18;87.06;97712.91;10240670;28;20539;-56
2022/08/12 02:26:39;;;;;;;10.05;7.45;;;;;;;16.30;86.66;97703.03;10257045;28;20453;-56
2022/08/12 02:31:41;;;;;;;9.05;7.38;;;;;;;16.43;86.39;97710.56;10256075;28;20512;-56
2022/08/12 02:36:43;;;;;;;11.80;8.27;;;;;;;16.35;86.32;97710.78;10228263;28;20087;-56
2022/08/12 02:41:47;;;;;;;9.95;7.00;;;;;;;16.23;86.21;97703.19;10216757;28;20540;-56
2022/08/12 02:46:49;;;;;;;9.75;7.07;;;;;;;16.12;86.43;97707.84;10216420;28;20504;-56
2022/08/12 02:51:49;;;;;;;11.13;7.55;;;;;;;16.06;86.08;97714.06;10248302;28;20503;-57
2022/08/12 02:56:48;;;;;;;11.50;7.78;;;;;;;16.04;85.84;97711.50;10256349;28;20054;-57
2022/08/12 03:01:53;;;;;;;14.27;8.90;;;;;;;16.03;85.42;97717.63;10255181;28;20065;-57
2022/08/12 03:07:01;;;;;;;10.98;8.75;;;;;;;16.05;85.56;97718.47;10256589;28;20065;-57
2022/08/12 03:12:04;;;;;;;12.85;8.52;;;;;;;16.15;85.26;97718.25;10224035;28;20492;-56
2022/08/12 03:17:24;;;;;;;12.68;7.55;;;;;;;16.17;84.86;97717.31;10215846;28;20486;-57
2022/08/12 03:22:25;;;;;;;15.35;8.98;;;;;;;16.15;85.13;97731.34;10247472;28;20521;-56
2022/08/12 03:27:25;;;;;;;11.98;8.45;;;;;;;16.17;85.16;97725.16;10254146;28;20058;-57
2022/08/12 03:32:25;;;;;;;15.27;8.07;;;;;;;16.26;85.01;97726.72;10252534;28;20064;-56
2022/08/12 03:37:29;;;;;;;16.35;8.57;;;;;;;16.39;84.99;97732.50;10220357;28;20074;-56
2022/08/12 03:42:40;;;;;;;11.32;7.88;;;;;;;16.47;84.62;97731.41;10230796;28;20066;-57
2022/08/12 04:04:02;;;;;;;12.70;7.95;;;;;;;16.74;84.03;97728.97;10254154;28;20484;-57
2022/08/12 04:09:04;;;;;;;11.65;7.80;;;;;;;16.73;83.82;97727.25;10216696;28;20077;-57
2022/08/12 04:14:21;;;;;;;15.27;8.10;;;;;;;16.72;83.56;97733.38;10212199;28;20058;-57
2022/08/12 04:19:23;;;;;;;10.10;7.65;;;;;;;16.75;83.61;97742.94;10229989;28;20068;-56
2022/08/12 04:24:25;;;;;;;9.43;7.45;;;;;;;16.84;83.21;97730.50;10252167;28;20072;-57
2022/08/12 04:29:25;;;;;;;12.13;7.38;;;;;;;16.97;82.87;97728.41;10250291;28;20619;-57
2022/08/12 04:34:24;;;;;;;9.80;7.65;;;;;;;17.11;82.53;97738.50;10251081;28;20080;-57
2022/08/12 04:39:25;;;;;;;11.05;7.63;;;;;;;16.95;83.42;97739.81;10253159;28;20080;-57
2022/08/12 04:44:25;;;;;;;10.35;7.70;;;;;;;17.10;83.09;97724.53;10250018;28;20078;-57
2022/08/12 04:49:25;;;;;;;10.32;7.78;;;;;;;17.34;82.75;97722.97;10248288;28;20062;-56
2022/08/12 04:54:25;;;;;;;10.85;7.60;;;;;;;17.61;82.18;97727.47;10242893;28;20062;-56
2022/08/12 04:59:24;;;;;;;11.30;7.43;;;;;;;17.92;80.62;97723.06;10250301;28;20532;-57
2022/08/12 05:04:25;;;;;;;11.38;7.18;;;;;;;18.10;79.77;97731.25;10250672;28;20496;-57
2022/08/12 05:09:24;;;;;;;8.98;7.68;;;;;;;18.34;79.41;97725.22;10249666;28;20061;-57
2022/08/12 05:14:23;;;;;;;11.52;7.30;;;;;;;18.38;78.33;97729.44;10244185;28;20041;-57
2022/08/12 05:19:22;;;;;;;10.85;7.60;;;;;;;18.40;78.25;97729.41;10243457;28;20041;-57
2022/08/12 05:24:21;;;;;;;10.85;7.90;;;;;;;18.57;77.74;97731.47;10250789;28;20068;-57
2022/08/12 05:29:20;;;;;;;10.50;7.88;;;;;;;18.65;76.22;97726.81;10248109;28;20073;-57
2022/08/12 05:34:19;;;;;;;11.13;8.55;;;;;;;18.76;76.16;97737.88;10246680;28;20042;-57
2022/08/12 05:39:18;;;;;;;16.42;8.70;;;;;;;18.91;75.16;97738.25;10232533;28;20065;-57
2022/08/12 05:44:17;;;;;;;12.20;8.60;;;;;;;19.03;74.58;97738.66;10246666;28;20045;-57
2022/08/12 05:49:16;;;;;;;13.27;8.27;;;;;;;19.19;74.05;97735.50;10249566;28;21038;-57
2022/08/12 05:54:15;;;;;;;14.02;9.02;;;;;;;19.39;74.23;97734.75;10250827;28;20041;-57
2022/08/12 05:59:14;;;;;;;12.57;8.10;;;;;;;19.74;72.90;97733.47;10251049;28;20101;-57
2022/08/12 06:04:13;;;;;;;11.85;7.93;;;;;;;20.07;70.97;97731.31;10226310;28;20041;-57
2022/08/12 06:09:12;;;;;;;12.23;7.38;;;;;;;20.28;69.19;97732.22;10248910;28;20109;-56
2022/08/12 06:14:11;;;;;;;14.98;8.57;;;;;;;20.52;69.40;97732.19;10235806;28;20543;-57
2022/08/12 06:19:10;;;;;;;11.52;7.93;;;;;;;20.81;67.99;97735.34;10249004;28;20037;-56
2022/08/12 06:24:12;;;;;;;12.32;8.15;;;;;;;21.02;66.09;97733.56;10249034;28;20030;-57
2022/08/12 06:29:18;;;;;;;11.88;7.75;;;;;;;21.19;64.78;97733.69;10248104;28;20069;-56
2022/08/12 06:34:17;;;;;;;9.70;7.15;;;;;;;21.30;64.16;97734.09;10248036;28;20074;-56
2022/08/12 06:39:16;;;;;;;10.82;7.07;;;;;;;21.60;62.87;97738.94;10238978;28;20073;-56
2022/08/12 06:44:19;;;;;;;8.50;6.90;;;;;;;21.85;60.34;97743.94;10255649;28;20125;-56
2022/08/12 06:49:18;;;;;;;8.07;6.05;;;;;;;21.99;60.56;97737.16;10254933;28;20061;-56
2022/08/12 06:54:17;;;;;;;6.40;5.22;;;;;;;22.11;58.68;97729.53;10237264;28;20072;-56
2022/08/12 06:59:16;;;;;;;6.32;5.43;;;;;;;22.18;58.77;97732.72;10241352;28;20031;-56
2022/08/12 07:04:15;;;;;;;6.88;5.97;;;;;;;22.34;58.24;97724.88;10251995;28;20034;-58
2022/08/12 07:09:16;;;;;;;9.75;6.32;;;;;;;22.67;58.41;97719.72;10254353;28;20030;-56
2022/08/12 07:14:15;;;;;;;10.68;6.10;;;;;;;23.04;56.75;97720.50;10253445;28;20177;-56
2022/08/12 07:19:15;;;;;;;8.82;5.93;;;;;;;23.17;54.86;97713.63;10237742;28;20133;-58
2022/08/12 07:24:14;;;;;;;9.60;8.13;;;;;;;23.44;55.00;97718.38;10251072;28;20074;-57
2022/08/12 07:29:14;;;;;;;10.95;6.85;;;;;;;23.59;53.24;97716.75;10251932;28;20133;-56
2022/08/12 07:34:13;;;;;;;10.50;7.80;;;;;;;23.80;54.03;97709.44;10252570;28;20523;-57
2022/08/12 07:39:12;;;;;;;10.23;5.75;;;;;;;24.08;52.08;97715.84;10248388;28;20086;-57
2022/08/12 07:44:12;;;;;;;8.20;5.70;;;;;;;23.74;51.56;97710.59;10229649;28;20030;-57
2022/08/12 07:49:14;;;;;;;8.38;5.57;;;;;;;23.78;52.62;97712.16;10253324;28;20066;-57
2022/08/12 07:54:13;;;;;;;11.25;5.63;;;;;;;23.90;53.32;97710.63;10253489;28;20503;-58
2022/08/12 07:59:12;;;;;;;7.00;5.30;;;;;;;24.39;52.87;97705.22;10246652;28;20504;-58
2022/08/12 08:09:28;;;;;;;6.22;4.80;;;;;;;24.22;49.03;97702.69;10232618;28;20066;-58
2022/08/12 08:14:28;;;;;;;8.77;4.75;;;;;;;24.56;49.14;97687.47;10253838;28;20109;-58
2022/08/12 08:19:28;;;;;;;5.85;4.65;;;;;;;24.78;47.00;97692.34;10248426;28;20129;-57
2022/08/12 08:24:28;;;;;;;5.85;4.35;;;;;;;24.67;47.38;97655.84;10254374;28;20085;-60
2022/08/12 08:29:28;;;;;;;4.90;4.40;;;;;;;24.59;47.62;97677.53;10250792;28;20081;-56
2022/08/12 08:34:30;;;;;;;5.57;3.92;;;;;;;24.61;47.14;97669.47;10252454;28;20093;-57
2022/08/12 08:39:30;;;;;;;4.20;3.80;;;;;;;24.73;46.01;97658.13;10251775;28;20511;-56
2022/08/12 08:44:29;;;;;;;4.18;3.53;;;;;;;24.89;45.40;97656.31;10253450;28;20070;-57
2022/08/12 08:49:28;;;;;;;5.65;3.60;;;;;;;24.77;45.04;97654.34;10250571;28;20457;-57
2022/08/12 08:54:32;;;;;;;5.32;3.80;;;;;;;24.73;45.45;97642.22;10251706;28;20496;-57
2022/08/12 08:59:31;;;;;;;4.30;3.67;;;;;;;24.77;46.14;97641.06;10249929;28;20082;-56
2022/08/12 09:04:30;;;;;;;5.97;4.20;;;;;;;25.03;46.72;97638.66;10246906;28;20041;-57
2022/08/12 09:09:29;;;;;;;3.95;3.60;;;;;;;25.20;44.96;97643.78;10251349;28;20463;-56
2022/08/12 09:14:28;;;;;;;5.00;3.72;;;;;;;25.31;43.96;97619.19;10250096;28;20392;-58
2022/08/12 09:19:28;;;;;;;4.03;3.55;;;;;;;25.23;43.34;97609.06;10251688;28;20034;-56
2022/08/12 09:24:27;;;;;;;6.05;4.10;;;;;;;25.64;41.50;97624.19;10247629;28;20182;-56
2022/08/12 09:29:28;;;;;;;5.30;3.63;;;;;;;26.04;42.81;97615.44;10243145;28;20031;-56
2022/08/12 09:34:28;;;;;;;4.65;3.90;;;;;;;26.38;40.88;97614.06;10249251;28;20077;-56
2022/08/12 09:39:31;;;;;;;5.00;3.70;;;;;;;26.63;40.06;97607.94;10246708;28;20078;-58
2022/08/12 09:49:48;;;;;;;5.30;3.70;;;;;;;27.25;40.61;97612.50;10248858;28;20066;-58
2022/08/12 09:54:47;;;;;;;4.13;3.40;;;;;;;27.67;39.94;97598.91;10250327;28;20077;-58
2022/08/12 09:59:46;;;;;;;5.70;3.60;;;;;;;28.07;38.09;97596.81;10218652;28;20118;-58
2022/08/12 10:04:47;;;;;;;5.03;3.20;;;;;;;28.24;37.94;97593.75;10210519;28;20720;-58
2022/08/12 10:09:46;;;;;;;4.70;3.60;;;;;;;28.10;34.55;97587.75;10235731;28;20092;-56
2022/08/12 10:14:45;;;;;;;5.38;3.80;;;;;;;27.56;35.24;97591.69;10266955;28;20031;-58
2022/08/12 10:19:44;;;;;;;4.85;3.65;;;;;;;27.71;35.06;97579.06;10246132;28;20051;-58
2022/08/12 10:29:35;;;;;;;6.20;3.75;;;;;;;28.22;35.62;97566.34;10218655;28;20150;-58
2022/08/12 10:30:06;;;;;;;4.45;3.63;;;;;;;28.42;34.09;97578.13;10217971;28;20062;-57
2022/08/12 10:35:06;;;;;;;6.32;4.05;;;;;;;28.21;34.25;97555.78;10237817;28;20101;-58
2022/08/12 10:40:05;;;;;;;6.50;3.40;;;;;;;28.01;34.14;97558.09;10218217;28;20066;-57
2022/08/12 10:45:06;;;;;;;3.65;3.35;;;;;;;28.28;35.92;97553.50;10254588;28;20182;-57
2022/08/12 10:50:08;;;;;;;4.70;3.40;;;;;;;28.23;34.47;97548.50;10245152;28;20066;-57
2022/08/12 10:55:08;;;;;;;4.75;3.22;;;;;;;27.56;35.44;97549.03;10257436;28;20081;-58
2022/08/12 11:00:07;;;;;;;5.38;3.75;;;;;;;27.43;36.01;97549.06;10260116;28;20061;-57
2022/08/12 11:05:10;;;;;;;3.65;3.35;;;;;;;27.71;36.57;97531.91;10257376;28;20054;-57
2022/08/12 11:10:09;;;;;;;4.55;3.40;;;;;;;27.11;36.43;97532.72;10258910;28;20073;-58
2022/08/12 11:15:08;;;;;;;5.82;4.03;;;;;;;27.19;37.00;97535.72;10257088;28;20117;-58
2022/08/12 11:20:08;;;;;;;5.70;3.63;;;;;;;27.46;35.75;97529.31;10258013;28;20072;-58
2022/08/12 11:25:08;;;;;;;4.50;3.80;;;;;;;27.35;35.26;97530.97;10256478;28;20058;-58
2022/08/12 11:30:08;;;;;;;6.32;4.18;;;;;;;27.38;36.71;97528.06;10227516;28;20066;-58
2022/08/12 11:35:08;;;;;;;6.80;4.80;;;;;;;27.38;36.99;97541.41;10236217;28;20532;-56
2022/08/12 11:40:07;;;;;;;10.45;5.75;;;;;;;27.22;36.42;97521.31;10253941;28;20068;-58
2022/08/12 11:45:06;;;;;;;7.60;4.70;;;;;;;27.20;37.76;97535.56;10253432;28;20057;-58
2022/08/12 11:50:06;;;;;;;5.07;4.25;;;;;;;26.90;38.67;97541.28;10253190;28;20069;-58
2022/08/12 11:55:06;;;;;;;4.55;4.10;;;;;;;26.60;39.47;97538.94;10215410;28;20070;-56
2022/08/12 12:00:05;;;;;;;6.53;4.25;;;;;;;26.37;39.31;97537.88;10212985;28;20058;-58
2022/08/12 12:05:05;;;;;;;8.13;4.20;;;;;;;26.15;39.76;97544.63;10250555;28;20489;-57
2022/08/12 12:10:04;;;;;;;4.03;3.63;;;;;;;25.99;40.40;97562.56;10272730;28;20058;-57
2022/08/12 12:15:04;;;;;;;4.28;3.70;;;;;;;25.84;41.07;97550.31;10220649;28;20118;-56
2022/08/12 12:20:08;;;;;;;6.68;4.30;;;;;;;25.76;41.73;97549.94;10212475;28;20097;-57
2022/08/12 12:25:08;;;;;;;4.85;4.07;;;;;;;25.74;43.12;97540.28;10212796;28;20077;-56
2022/08/12 12:30:07;;;;;;;5.47;4.55;;;;;;;25.71;43.82;97527.19;10225011;28;20063;-56
2022/08/12 12:35:07;;;;;;;9.80;5.47;;;;;;;25.78;43.67;97524.97;10250898;28;20081;-56
2022/08/12 12:40:06;;;;;;;6.43;4.70;;;;;;;25.59;43.19;97513.84;10223014;28;20533;-57
2022/08/12 12:45:06;;;;;;;9.38;5.97;;;;;;;25.60;43.86;97499.59;10209188;28;20472;-58
2022/08/12 12:50:05;;;;;;;7.20;4.75;;;;;;;25.82;43.28;97499.03;10247790;28;20179;-58
2022/08/12 12:55:05;;;;;;;5.07;4.30;;;;;;;26.05;43.47;97484.19;10250964;28;20061;-57
2022/08/12 13:00:13;;;;;;;5.10;4.13;;;;;;;26.21;43.32;97446.81;10250551;28;20069;-58
2022/08/12 13:05:12;;;;;;;5.45;3.88;;;;;;;26.85;41.47;97482.19;10233714;28;20465;-57
2022/08/12 13:10:11;;;;;;;4.53;3.58;;;;;;;27.57;41.19;97486.78;10211245;28;20380;-58
2022/08/12 13:15:14;;;;;;;5.88;3.50;;;;;;;28.36;39.85;97474.53;10209976;28;20066;-58
2022/08/12 13:20:13;;;;;;;3.70;3.40;;;;;;;28.99;36.72;97468.72;10210991;28;20533;-58
2022/08/12 13:25:15;;;;;;;3.42;3.10;;;;;;;29.54;34.57;97461.56;10229457;28;20073;-58
2022/08/12 13:30:17;;;;;;;3.55;3.25;;;;;;;29.73;33.24;97452.00;10249891;28;20746;-57
2022/08/12 13:35:16;;;;;;;5.53;3.30;;;;;;;29.76;33.26;97452.59;10233099;28;20113;-58
2022/08/12 13:40:15;;;;;;;6.55;3.22;;;;;;;29.72;31.84;97453.84;10236168;28;20062;-58
2022/08/12 13:45:15;;;;;;;5.32;3.03;;;;;;;29.55;31.33;97446.38;10250971;28;20113;-57
2022/08/12 13:50:14;;;;;;;5.30;2.83;;;;;;;29.49;30.59;97440.56;10257126;28;20073;-57
2022/08/12 13:55:13;;;;;;;3.22;2.75;;;;;;;29.17;30.55;97432.50;10262352;28;20122;-57
2022/08/12 14:00:13;;;;;;;5.05;2.95;;;;;;;29.03;31.70;97422.94;10251334;28;20118;-58
2022/08/12 14:05:13;;;;;;;3.10;2.80;;;;;;;28.95;31.97;97427.22;10266541;28;20092;-58
2022/08/12 14:15:30;;;;;;;4.03;2.80;;;;;;;29.18;31.07;97403.94;10266772;28;20062;-58
2022/08/12 14:20:29;;;;;;;3.47;2.80;;;;;;;29.14;30.81;97416.72;10265929;28;20073;-58
2022/08/12 14:25:28;;;;;;;4.20;3.25;;;;;;;29.03;30.58;97414.06;10266025;28;20076;-58
2022/08/12 14:30:27;;;;;;;3.65;2.90;;;;;;;29.16;30.94;97403.25;10265837;28;20065;-58
2022/08/12 14:35:26;;;;;;;4.15;3.10;;;;;;;29.21;31.00;97395.69;10246571;28;20054;-58
2022/08/12 14:40:28;;;;;;;7.57;4.45;;;;;;;29.11;31.33;97397.41;10224646;28;20081;-58
2022/08/12 14:45:27;;;;;;;4.43;3.55;;;;;;;29.16;30.45;97401.41;10240076;28;20131;-58
2022/08/12 14:50:26;;;;;;;4.20;2.67;;;;;;;29.30;29.41;97397.63;10251627;28;20111;-58
2022/08/12 14:55:30;;;;;;;4.53;2.60;;;;;;;29.61;30.67;97387.03;10256258;28;20077;-57
2022/08/12 15:05:47;;;;;;;4.13;2.97;;;;;;;29.13;30.50;97387.44;10256724;28;20062;-58
2022/08/12 15:10:46;;;;;;;5.20;2.95;;;;;;;29.04;29.44;97378.34;10255553;28;20472;-58
2022/08/12 15:15:45;;;;;;;4.85;3.17;;;;;;;29.15;30.93;97372.13;10254319;28;20065;-57
2022/08/12 15:20:44;;;;;;;3.97;2.80;;;;;;;28.85;29.81;97373.69;10255083;28;20077;-57
2022/08/12 15:25:44;;;;;;;5.70;3.10;;;;;;;28.91;30.12;97373.19;10253276;28;20070;-58
2022/08/12 15:30:43;;;;;;;3.88;3.30;;;;;;;28.98;30.95;97374.38;10253684;28;20080;-58
2022/08/12 15:35:42;;;;;;;5.28;3.10;;;;;;;28.92;30.75;97364.19;10232273;28;20125;-57
2022/08/12 15:40:52;;;;;;;4.03;3.15;;;;;;;28.83;30.86;97367.63;10232824;28;20155;-58
2022/08/12 15:45:51;;;;;;;4.10;3.25;;;;;;;28.76;31.56;97369.09;10222678;28;20157;-57
2022/08/12 15:50:51;;;;;;;3.65;2.67;;;;;;;28.53;31.46;97358.44;10224858;28;20115;-58
2022/08/12 15:55:50;;;;;;;3.50;3.20;;;;;;;28.48;31.71;97354.41;10228873;28;20086;-58
2022/08/12 16:00:49;;;;;;;5.53;3.85;;;;;;;28.40;31.95;97353.22;10213366;28;20031;-58
2022/08/12 16:05:48;;;;;;;5.35;3.35;;;;;;;28.33;32.34;97356.50;10217168;28;20035;-57
2022/08/12 16:10:47;;;;;;;4.45;3.05;;;;;;;28.16;32.23;97361.34;10217797;28;20035;-58
2022/08/12 16:15:46;;;;;;;3.95;3.38;;;;;;;27.94;33.16;97361.31;10216932;28;20027;-57
2022/08/12 16:20:45;;;;;;;3.85;3.17;;;;;;;27.75;33.95;97362.75;10217166;28;20085;-58
2022/08/12 16:25:48;;;;;;;4.25;3.30;;;;;;;27.67;34.83;97365.16;10214524;28;20077;-57
2022/08/12 16:30:47;;;;;;;5.18;4.07;;;;;;;27.55;34.93;97360.75;10243918;28;20523;-58
2022/08/12 16:35:48;;;;;;;5.25;4.07;;;;;;;27.37;36.00;97373.63;10232248;28;20103;-57
2022/08/12 16:40:47;;;;;;;7.60;3.30;;;;;;;27.08;37.26;97374.00;10216028;28;20089;-57
2022/08/12 16:45:48;;;;;;;4.47;3.28;;;;;;;26.78;38.41;97372.59;10215561;28;20033;-57
2022/08/12 16:50:48;;;;;;;7.00;3.47;;;;;;;26.44;39.05;97379.53;10219698;28;20076;-57
2022/08/12 16:55:49;;;;;;;7.50;4.28;;;;;;;26.14;39.84;97383.34;10226285;28;20141;-57
2022/08/12 17:00:48;;;;;;;7.70;3.60;;;;;;;25.84;40.32;97369.53;10221820;28;20082;-57
2022/08/12 17:05:53;;;;;;;5.57;3.72;;;;;;;25.46;41.47;97387.09;10236911;28;20066;-57
2022/08/12 17:10:52;;;;;;;5.63;3.92;;;;;;;25.12;41.89;97377.88;10241566;28;20591;-57
2022/08/12 17:15:51;;;;;;;7.78;3.80;;;;;;;24.86;42.42;97379.56;10226204;28;20065;-57
2022/08/12 17:20:50;;;;;;;4.80;3.72;;;;;;;24.61;43.11;97385.56;10229245;28;20069;-57
2022/08/12 17:25:53;;;;;;;5.28;4.05;;;;;;;24.30;43.55;97390.16;10242987;28;20038;-57
2022/08/12 17:30:53;;;;;;;5.07;4.00;;;;;;;23.99;44.29;97392.03;10234950;28;20061;-58
2022/08/12 17:35:52;;;;;;;5.80;3.95;;;;;;;23.71;44.78;97397.31;10246332;28;20070;-58
2022/08/12 17:40:53;;;;;;;5.88;4.38;;;;;;;23.44;45.31;97401.47;10234888;28;20141;-58
2022/08/12 17:45:54;;;;;;;8.20;4.55;;;;;;;23.28;45.56;97399.78;10231917;28;20449;-58
2022/08/12 17:50:53;;;;;;;9.10;4.47;;;;;;;23.13;46.21;97402.38;10229759;28;20077;-57
2022/08/12 17:55:52;;;;;;;6.60;4.13;;;;;;;22.97;46.18;97406.84;10236075;28;20030;-57
2022/08/12 18:00:52;;;;;;;7.47;4.00;;;;;;;22.87;46.89;97410.97;10220310;28;20084;-55
2022/08/12 18:05:51;;;;;;;6.50;4.63;;;;;;;22.74;47.65;97411.66;10250745;28;20062;-58
2022/08/12 18:16:12;;;;;;;8.18;5.30;;;;;;;22.50;48.39;97428.81;10223169;28;20082;-57
2022/08/12 18:21:13;;;;;;;12.35;6.75;;;;;;;22.39;48.66;97435.56;10231654;28;20568;-58
2022/08/12 18:26:21;;;;;;;9.35;5.82;;;;;;;22.33;48.53;97433.25;10227872;28;20495;-57
2022/08/12 18:31:28;;;;;;;8.23;5.57;;;;;;;22.31;49.07;97440.38;10222025;28;20075;-58
2022/08/12 18:36:28;;;;;;;12.45;5.30;;;;;;;22.26;49.27;97442.44;10241422;28;20082;-56
2022/08/12 18:41:31;;;;;;;8.98;4.90;;;;;;;22.21;49.15;97433.91;10219827;28;20074;-57
2022/08/12 18:46:44;;;;;;;7.50;4.38;;;;;;;22.15;49.47;97440.34;10225090;28;20853;-58
2022/08/12 18:51:47;;;;;;;7.20;4.13;;;;;;;22.07;49.97;97447.84;10252506;28;20145;-58
2022/08/12 18:56:50;;;;;;;5.50;3.90;;;;;;;22.01;50.03;97447.31;10225315;28;20138;-56
2022/08/12 19:01:52;;;;;;;7.05;4.07;;;;;;;21.90;50.19;97453.97;10216477;28;20085;-59
2022/08/12 19:06:56;;;;;;;6.78;4.15;;;;;;;21.84;51.05;97456.06;10241214;28;20085;-57
2022/08/12 19:17:13;;;;;;;8.80;5.03;;;;;;;21.65;51.51;97450.88;10240669;28;20125;-57
2022/08/12 19:22:12;;;;;;;6.55;5.32;;;;;;;21.57;52.16;97459.19;10246846;28;20146;-57
2022/08/12 19:27:11;;;;;;;8.55;5.07;;;;;;;21.45;53.04;97465.06;10229814;28;20500;-58
2022/08/12 19:32:13;;;;;;;6.63;4.70;;;;;;;21.39;53.82;97463.59;10229280;28;20062;-57
2022/08/12 19:37:21;;;;;;;6.93;5.30;;;;;;;21.31;54.34;97453.41;10231681;28;20133;-57
2022/08/12 19:42:21;;;;;;;9.43;5.00;;;;;;;21.27;54.89;97453.63;10231999;28;20090;-57
2022/08/12 19:47:21;;;;;;;6.78;5.13;;;;;;;21.19;55.16;97461.03;10234924;28;20093;-57
2022/08/12 19:52:26;;;;;;;5.47;4.72;;;;;;;21.11;54.77;97461.41;10221944;28;20070;-57
2022/08/12 19:57:27;;;;;;;7.90;4.90;;;;;;;21.03;54.75;97459.16;10242426;28;20081;-57
2022/08/12 20:02:30;;;;;;;8.45;5.55;;;;;;;20.98;56.53;97461.13;10238056;28;20070;-57
2022/08/12 20:07:32;;;;;;;9.02;5.80;;;;;;;20.88;58.08;97452.78;10226679;28;20078;-57
2022/08/12 20:12:34;;;;;;;10.30;5.85;;;;;;;20.67;58.40;97462.56;10228547;28;20070;-57
2022/08/12 20:17:33;;;;;;;8.32;5.88;;;;;;;20.58;58.29;97460.34;10243825;28;20221;-57
2022/08/12 20:22:33;;;;;;;6.80;5.07;;;;;;;20.54;58.73;97458.81;10246633;28;20077;-57
2022/08/12 20:27:32;;;;;;;7.20;5.22;;;;;;;20.52;58.84;97457.13;10253685;28;20484;-57
2022/08/12 20:32:31;;;;;;;9.05;5.13;;;;;;;20.53;59.03;97443.06;10249336;28;20126;-57
2022/08/12 20:37:30;;;;;;;8.95;5.68;;;;;;;20.50;59.46;97444.06;10215930;28;20143;-57
2022/08/12 20:42:30;;;;;;;8.65;5.57;;;;;;;20.51;59.43;97451.03;10211930;28;20030;-57
2022/08/12 20:47:29;;;;;;;8.00;5.85;;;;;;;20.54;59.78;97445.63;10241737;28;20505;-57
2022/08/12 20:52:32;;;;;;;8.60;5.18;;;;;;;20.55;59.42;97442.06;10249851;28;20480;-57
2022/08/12 20:57:33;;;;;;;8.25;5.55;;;;;;;20.57;59.00;97440.22;10247201;28;20080;-56
2022/08/12 21:02:32;;;;;;;8.50;5.85;;;;;;;20.56;59.97;97443.75;10248323;28;20104;-56
2022/08/12 21:07:32;;;;;;;8.50;5.95;;;;;;;20.56;60.83;97449.03;10250574;28;20448;-56
2022/08/12 21:12:32;;;;;;;8.60;5.60;;;;;;;20.40;61.24;97424.28;10249724;28;20121;-56
2022/08/12 21:17:32;;;;;;;8.90;6.70;;;;;;;20.54;61.10;97445.63;10249413;28;20497;-56
2022/08/12 21:22:32;;;;;;;8.25;5.53;;;;;;;20.60;61.50;97439.19;10249224;28;20080;-56
2022/08/12 21:27:32;;;;;;;8.18;5.90;;;;;;;20.60;61.68;97444.47;10250664;28;20070;-56
2022/08/12 21:32:32;;;;;;;7.60;5.80;;;;;;;20.57;61.68;97439.34;10248538;28;20077;-56
2022/08/12 21:37:31;;;;;;;8.10;5.75;;;;;;;20.58;61.73;97436.63;10215972;28;20549;-56
2022/08/12 21:42:29;;;;;;;9.07;6.18;;;;;;;20.60;61.80;97429.50;10212954;28;20437;-56
2022/08/12 21:47:28;;;;;;;10.68;5.90;;;;;;;20.56;61.41;97425.28;10214485;28;20416;-57
2022/08/12 21:52:27;;;;;;;9.40;5.43;;;;;;;20.47;62.29;97429.25;10212956;28;20068;-57
2022/08/12 21:57:29;;;;;;;7.35;5.18;;;;;;;20.39;62.87;97412.03;10247111;28;20108;-57
2022/08/12 22:07:46;;;;;;;8.27;5.25;;;;;;;20.28;61.57;97405.47;10251425;28;20066;-57
2022/08/12 22:12:46;;;;;;;7.53;5.13;;;;;;;20.15;62.18;97414.84;10256026;28;20074;-57
2022/08/12 22:17:45;;;;;;;8.40;5.60;;;;;;;20.09;61.85;97415.13;10257544;28;20065;-56
2022/08/12 22:22:44;;;;;;;9.70;5.88;;;;;;;20.05;61.72;97403.88;10259254;28;20054;-56
2022/08/12 22:33:04;;;;;;;8.93;5.72;;;;;;;20.17;61.53;97391.09;10238857;28;20066;-57
2022/08/12 22:38:08;;;;;;;8.90;5.70;;;;;;;20.18;61.80;97380.44;10221995;28;20074;-57
2022/08/12 22:48:24;;;;;;;13.05;6.10;;;;;;;20.10;62.87;97376.47;10257376;28;20491;-57
2022/08/12 22:53:24;;;;;;;8.30;5.43;;;;;;;20.08;63.00;97364.22;10257636;28;20038;-57
2022/08/12 22:58:23;;;;;;;10.13;5.80;;;;;;;20.12;63.26;97370.22;10254591;28;20069;-56
2022/08/12 23:03:22;;;;;;;10.68;6.38;;;;;;;20.13;63.81;97371.06;10256153;28;20081;-57
2022/08/12 23:08:23;;;;;;;12.55;6.35;;;;;;;20.13;63.48;97369.28;10254036;28;20081;-56
2022/08/12 23:18:39;;;;;;;8.60;5.53;;;;;;;20.03;64.26;97368.84;10255686;28;20885;-57
2022/08/12 23:23:41;;;;;;;6.30;5.43;;;;;;;20.01;64.78;97364.56;10254806;28;20512;-57
2022/08/12 23:33:58;;;;;;;8.02;5.97;;;;;;;19.96;64.57;97362.16;10226078;28;20078;-57
2022/08/12 23:38:57;;;;;;;7.18;5.22;;;;;;;19.97;64.19;97357.72;10216156;28;20085;-57
2022/08/12 23:43:57;;;;;;;10.30;5.75;;;;;;;19.99;64.40;97347.97;10253375;28;20086;-56
2022/08/12 23:48:58;;;;;;;17.88;5.95;;;;;;;20.01;64.31;97359.31;10255448;28;20062;-57
2022/08/12 23:54:01;;;;;;;7.22;5.38;;;;;;;20.00;64.62;97345.28;10220910;28;20131;-56
2022/08/12 23:59:03;;;;;;;9.40;5.22;;;;;;;19.89;65.27;97331.75;10215172;28;20081;-56
